sensor_id;sensor_type;location;lat;lon;timestamp;P1;durP1;ratioP1;P2;durP2;ratioP2
72920;SDS011;61064;51.654;5.476;2023-11-21T00:01:39;26.00;;;10.40;;
72920;SDS011;61064;51.654;5.476;2023-11-21T00:04:05;27.77;;;10.37;;
72920;SDS011;61064;51.654;5.476;2023-11-21T00:06:32;26.58;;;9.80;;
72920;SDS011;61064;51.654;5.476;2023-11-21T00:08:57;29.53;;;10.77;;
72920;SDS011;61064;51.654;5.476;2023-11-21T00:11:23;26.00;;;10.60;;
72920;SDS011;61064;51.654;5.476;2023-11-21T00:13:50;27.50;;;10.05;;
72920;SDS011;61064;51.654;5.476;2023-11-21T00:16:15;25.00;;;9.77;;
72920;SDS011;61064;51.654;5.476;2023-11-21T00:18:40;25.60;;;10.03;;
72920;SDS011;61064;51.654;5.476;2023-11-21T00:21:07;24.80;;;9.88;;
72920;SDS011;61064;51.654;5.476;2023-11-21T00:23:33;25.05;;;10.20;;
72920;SDS011;61064;51.654;5.476;2023-11-21T00:25:59;25.90;;;10.53;;
72920;SDS011;61064;51.654;5.476;2023-11-21T00:28:24;29.43;;;10.80;;
72920;SDS011;61064;51.654;5.476;2023-11-21T00:30:51;27.20;;;10.55;;
72920;SDS011;61064;51.654;5.476;2023-11-21T00:33:16;25.47;;;10.27;;
72920;SDS011;61064;51.654;5.476;2023-11-21T00:35:41;27.07;;;10.60;;
72920;SDS011;61064;51.654;5.476;2023-11-21T00:38:07;25.23;;;10.60;;
72920;SDS011;61064;51.654;5.476;2023-11-21T00:40:33;27.00;;;10.68;;
72920;SDS011;61064;51.654;5.476;2023-11-21T00:42:59;26.10;;;10.23;;
72920;SDS011;61064;51.654;5.476;2023-11-21T00:45:24;23.27;;;10.07;;
72920;SDS011;61064;51.654;5.476;2023-11-21T00:47:50;22.05;;;9.80;;
72920;SDS011;61064;51.654;5.476;2023-11-21T00:50:16;26.27;;;9.70;;
72920;SDS011;61064;51.654;5.476;2023-11-21T00:52:41;27.93;;;10.87;;
72920;SDS011;61064;51.654;5.476;2023-11-21T00:55:07;24.23;;;9.70;;
72920;SDS011;61064;51.654;5.476;2023-11-21T00:57:33;27.92;;;10.63;;
72920;SDS011;61064;51.654;5.476;2023-11-21T00:59:59;26.70;;;10.15;;
72920;SDS011;61064;51.654;5.476;2023-11-21T01:02:25;25.80;;;10.27;;
72920;SDS011;61064;51.654;5.476;2023-11-21T01:04:50;25.45;;;9.93;;
72920;SDS011;61064;51.654;5.476;2023-11-21T01:07:16;26.60;;;10.13;;
72920;SDS011;61064;51.654;5.476;2023-11-21T01:09:42;24.60;;;9.80;;
72920;SDS011;61064;51.654;5.476;2023-11-21T01:12:09;22.60;;;9.63;;
72920;SDS011;61064;51.654;5.476;2023-11-21T01:14:34;24.30;;;9.47;;
72920;SDS011;61064;51.654;5.476;2023-11-21T01:17:01;27.50;;;9.77;;
72920;SDS011;61064;51.654;5.476;2023-11-21T01:19:27;25.70;;;9.93;;
72920;SDS011;61064;51.654;5.476;2023-11-21T01:21:53;26.88;;;10.48;;
72920;SDS011;61064;51.654;5.476;2023-11-21T01:24:19;23.67;;;10.20;;
72920;SDS011;61064;51.654;5.476;2023-11-21T01:26:44;25.13;;;10.43;;
72920;SDS011;61064;51.654;5.476;2023-11-21T01:29:11;28.45;;;11.40;;
72920;SDS011;61064;51.654;5.476;2023-11-21T01:31:37;25.33;;;10.73;;
72920;SDS011;61064;51.654;5.476;2023-11-21T01:34:02;29.27;;;11.50;;
72920;SDS011;61064;51.654;5.476;2023-11-21T01:36:31;25.73;;;10.80;;
72920;SDS011;61064;51.654;5.476;2023-11-21T01:38:57;38.93;;;12.03;;
72920;SDS011;61064;51.654;5.476;2023-11-21T01:41:24;38.13;;;12.57;;
72920;SDS011;61064;51.654;5.476;2023-11-21T01:43:51;62.78;;;12.95;;
72920;SDS011;61064;51.654;5.476;2023-11-21T01:46:18;54.05;;;12.38;;
72920;SDS011;61064;51.654;5.476;2023-11-21T01:48:45;102.72;;;13.38;;
72920;SDS011;61064;51.654;5.476;2023-11-21T01:51:10;56.77;;;13.53;;
72920;SDS011;61064;51.654;5.476;2023-11-21T01:53:36;35.60;;;12.27;;
72920;SDS011;61064;51.654;5.476;2023-11-21T01:56:01;45.33;;;13.82;;
72920;SDS011;61064;51.654;5.476;2023-11-21T01:58:27;158.83;;;15.27;;
72920;SDS011;61064;51.654;5.476;2023-11-21T02:00:52;88.73;;;13.07;;
72920;SDS011;61064;51.654;5.476;2023-11-21T02:03:19;132.02;;;14.48;;
72920;SDS011;61064;51.654;5.476;2023-11-21T02:05:45;93.67;;;13.87;;
72920;SDS011;61064;51.654;5.476;2023-11-21T02:08:11;97.10;;;13.90;;
72920;SDS011;61064;51.654;5.476;2023-11-21T02:10:36;154.77;;;14.10;;
72920;SDS011;61064;51.654;5.476;2023-11-21T02:13:02;108.25;;;13.57;;
72920;SDS011;61064;51.654;5.476;2023-11-21T02:15:31;153.20;;;14.33;;
72920;SDS011;61064;51.654;5.476;2023-11-21T02:17:57;185.00;;;13.75;;
72920;SDS011;61064;51.654;5.476;2023-11-21T02:20:23;129.13;;;12.30;;
72920;SDS011;61064;51.654;5.476;2023-11-21T02:22:56;140.43;;;14.48;;
72920;SDS011;61064;51.654;5.476;2023-11-21T02:25:25;197.90;;;14.43;;
72920;SDS011;61064;51.654;5.476;2023-11-21T02:27:53;199.85;;;14.25;;
72920;SDS011;61064;51.654;5.476;2023-11-21T02:30:19;133.20;;;12.77;;
72920;SDS011;61064;51.654;5.476;2023-11-21T02:32:46;145.82;;;11.65;;
72920;SDS011;61064;51.654;5.476;2023-11-21T02:35:13;105.55;;;10.82;;
72920;SDS011;61064;51.654;5.476;2023-11-21T02:37:38;67.03;;;11.53;;
72920;SDS011;61064;51.654;5.476;2023-11-21T02:40:04;90.43;;;10.53;;
72920;SDS011;61064;51.654;5.476;2023-11-21T02:42:34;95.13;;;11.10;;
72920;SDS011;61064;51.654;5.476;2023-11-21T02:45:00;49.17;;;10.57;;
72920;SDS011;61064;51.654;5.476;2023-11-21T02:47:25;45.37;;;10.03;;
72920;SDS011;61064;51.654;5.476;2023-11-21T02:49:50;69.20;;;10.52;;
72920;SDS011;61064;51.654;5.476;2023-11-21T02:52:17;68.43;;;10.33;;
72920;SDS011;61064;51.654;5.476;2023-11-21T02:54:42;78.00;;;10.75;;
72920;SDS011;61064;51.654;5.476;2023-11-21T02:57:08;44.27;;;10.03;;
72920;SDS011;61064;51.654;5.476;2023-11-21T02:59:33;65.20;;;10.80;;
72920;SDS011;61064;51.654;5.476;2023-11-21T03:01:59;62.05;;;10.73;;
72920;SDS011;61064;51.654;5.476;2023-11-21T03:04:25;41.13;;;10.17;;
72920;SDS011;61064;51.654;5.476;2023-11-21T03:06:51;35.40;;;10.07;;
72920;SDS011;61064;51.654;5.476;2023-11-21T03:09:16;28.57;;;9.90;;
72920;SDS011;61064;51.654;5.476;2023-11-21T03:11:42;28.00;;;10.20;;
72920;SDS011;61064;51.654;5.476;2023-11-21T03:14:07;32.60;;;10.60;;
72920;SDS011;61064;51.654;5.476;2023-11-21T03:16:32;25.95;;;10.23;;
72920;SDS011;61064;51.654;5.476;2023-11-21T03:18:58;32.83;;;10.70;;
72920;SDS011;61064;51.654;5.476;2023-11-21T03:21:23;28.20;;;10.27;;
72920;SDS011;61064;51.654;5.476;2023-11-21T03:23:49;31.05;;;10.40;;
72920;SDS011;61064;51.654;5.476;2023-11-21T03:26:15;26.63;;;9.90;;
72920;SDS011;61064;51.654;5.476;2023-11-21T03:28:41;29.23;;;10.02;;
72920;SDS011;61064;51.654;5.476;2023-11-21T03:31:10;25.90;;;10.15;;
72920;SDS011;61064;51.654;5.476;2023-11-21T03:33:35;26.20;;;10.40;;
72920;SDS011;61064;51.654;5.476;2023-11-21T03:36:01;25.00;;;9.87;;
72920;SDS011;61064;51.654;5.476;2023-11-21T03:38:29;25.52;;;9.40;;
72920;SDS011;61064;51.654;5.476;2023-11-21T03:40:54;23.50;;;10.05;;
72920;SDS011;61064;51.654;5.476;2023-11-21T03:43:19;28.17;;;10.30;;
72920;SDS011;61064;51.654;5.476;2023-11-21T03:45:44;29.00;;;10.40;;
72920;SDS011;61064;51.654;5.476;2023-11-21T03:48:12;32.87;;;9.57;;
72920;SDS011;61064;51.654;5.476;2023-11-21T03:50:38;27.02;;;9.68;;
72920;SDS011;61064;51.654;5.476;2023-11-21T03:53:03;31.63;;;10.02;;
72920;SDS011;61064;51.654;5.476;2023-11-21T03:55:29;29.03;;;9.83;;
72920;SDS011;61064;51.654;5.476;2023-11-21T03:57:56;44.80;;;11.07;;
72920;SDS011;61064;51.654;5.476;2023-11-21T04:00:22;49.63;;;10.23;;
72920;SDS011;61064;51.654;5.476;2023-11-21T04:02:48;49.13;;;10.73;;
72920;SDS011;61064;51.654;5.476;2023-11-21T04:05:13;38.20;;;10.33;;
72920;SDS011;61064;51.654;5.476;2023-11-21T04:07:38;44.57;;;10.90;;
72920;SDS011;61064;51.654;5.476;2023-11-21T04:10:05;39.17;;;10.23;;
72920;SDS011;61064;51.654;5.476;2023-11-21T04:12:33;31.52;;;10.10;;
72920;SDS011;61064;51.654;5.476;2023-11-21T04:14:59;31.45;;;10.55;;
72920;SDS011;61064;51.654;5.476;2023-11-21T04:17:24;40.67;;;10.73;;
72920;SDS011;61064;51.654;5.476;2023-11-21T04:19:49;38.27;;;10.47;;
72920;SDS011;61064;51.654;5.476;2023-11-21T04:22:15;30.53;;;10.50;;
72920;SDS011;61064;51.654;5.476;2023-11-21T04:24:40;28.27;;;10.43;;
72920;SDS011;61064;51.654;5.476;2023-11-21T04:27:06;29.93;;;11.10;;
72920;SDS011;61064;51.654;5.476;2023-11-21T04:29:31;26.83;;;10.20;;
72920;SDS011;61064;51.654;5.476;2023-11-21T04:31:56;26.90;;;10.40;;
72920;SDS011;61064;51.654;5.476;2023-11-21T04:34:21;22.70;;;9.90;;
72920;SDS011;61064;51.654;5.476;2023-11-21T04:36:47;20.37;;;10.10;;
72920;SDS011;61064;51.654;5.476;2023-11-21T04:39:12;24.27;;;10.60;;
72920;SDS011;61064;51.654;5.476;2023-11-21T04:41:37;21.47;;;9.83;;
72920;SDS011;61064;51.654;5.476;2023-11-21T04:44:04;25.08;;;10.80;;
72920;SDS011;61064;51.654;5.476;2023-11-21T04:46:30;24.65;;;11.07;;
72920;SDS011;61064;51.654;5.476;2023-11-21T04:48:57;23.40;;;10.43;;
72920;SDS011;61064;51.654;5.476;2023-11-21T04:51:22;21.40;;;9.90;;
72920;SDS011;61064;51.654;5.476;2023-11-21T04:53:47;23.00;;;10.50;;
72920;SDS011;61064;51.654;5.476;2023-11-21T04:56:13;22.80;;;10.47;;
72920;SDS011;61064;51.654;5.476;2023-11-21T04:58:38;23.67;;;10.17;;
72920;SDS011;61064;51.654;5.476;2023-11-21T05:01:05;20.80;;;10.07;;
72920;SDS011;61064;51.654;5.476;2023-11-21T05:03:30;22.55;;;10.55;;
72920;SDS011;61064;51.654;5.476;2023-11-21T05:05:56;24.13;;;10.63;;
72920;SDS011;61064;51.654;5.476;2023-11-21T05:08:22;24.50;;;10.60;;
72920;SDS011;61064;51.654;5.476;2023-11-21T05:10:47;22.43;;;10.47;;
72920;SDS011;61064;51.654;5.476;2023-11-21T05:13:13;20.53;;;10.37;;
72920;SDS011;61064;51.654;5.476;2023-11-21T05:15:42;25.20;;;10.88;;
72920;SDS011;61064;51.654;5.476;2023-11-21T05:18:08;22.55;;;10.80;;
72920;SDS011;61064;51.654;5.476;2023-11-21T05:20:33;21.40;;;9.77;;
72920;SDS011;61064;51.654;5.476;2023-11-21T05:22:58;21.17;;;10.30;;
72920;SDS011;61064;51.654;5.476;2023-11-21T05:25:24;23.40;;;10.47;;
72920;SDS011;61064;51.654;5.476;2023-11-21T05:27:50;22.13;;;10.48;;
72920;SDS011;61064;51.654;5.476;2023-11-21T05:30:15;23.07;;;10.50;;
72920;SDS011;61064;51.654;5.476;2023-11-21T05:32:41;22.63;;;10.70;;
72920;SDS011;61064;51.654;5.476;2023-11-21T05:35:14;22.27;;;9.73;;
72920;SDS011;61064;51.654;5.476;2023-11-21T05:37:42;23.05;;;10.38;;
72920;SDS011;61064;51.654;5.476;2023-11-21T05:40:09;20.70;;;9.95;;
72920;SDS011;61064;51.654;5.476;2023-11-21T05:42:35;21.80;;;10.50;;
72920;SDS011;61064;51.654;5.476;2023-11-21T05:45:01;21.42;;;10.57;;
72920;SDS011;61064;51.654;5.476;2023-11-21T05:47:45;18.73;;;10.20;;
72920;SDS011;61064;51.654;5.476;2023-11-21T05:50:12;22.10;;;10.50;;
72920;SDS011;61064;51.654;5.476;2023-11-21T05:52:41;23.02;;;10.63;;
72920;SDS011;61064;51.654;5.476;2023-11-21T05:55:08;21.07;;;10.37;;
72920;SDS011;61064;51.654;5.476;2023-11-21T05:57:34;21.80;;;10.45;;
72920;SDS011;61064;51.654;5.476;2023-11-21T06:00:03;22.65;;;10.07;;
72920;SDS011;61064;51.654;5.476;2023-11-21T06:02:37;25.35;;;10.68;;
72920;SDS011;61064;51.654;5.476;2023-11-21T06:05:09;21.77;;;10.65;;
72920;SDS011;61064;51.654;5.476;2023-11-21T06:07:35;24.57;;;10.47;;
72920;SDS011;61064;51.654;5.476;2023-11-21T06:10:02;23.88;;;10.90;;
72920;SDS011;61064;51.654;5.476;2023-11-21T06:12:31;24.00;;;11.32;;
72920;SDS011;61064;51.654;5.476;2023-11-21T06:15:00;26.05;;;12.25;;
72920;SDS011;61064;51.654;5.476;2023-11-21T06:17:30;24.05;;;11.93;;
72920;SDS011;61064;51.654;5.476;2023-11-21T06:19:56;23.13;;;10.77;;
72920;SDS011;61064;51.654;5.476;2023-11-21T06:22:21;25.65;;;10.93;;
72920;SDS011;61064;51.654;5.476;2023-11-21T06:24:47;26.93;;;10.80;;
72920;SDS011;61064;51.654;5.476;2023-11-21T06:27:12;25.53;;;11.23;;
72920;SDS011;61064;51.654;5.476;2023-11-21T06:29:37;29.57;;;11.40;;
72920;SDS011;61064;51.654;5.476;2023-11-21T06:32:03;26.08;;;11.55;;
72920;SDS011;61064;51.654;5.476;2023-11-21T06:34:30;25.93;;;11.93;;
72920;SDS011;61064;51.654;5.476;2023-11-21T06:36:55;28.17;;;11.73;;
72920;SDS011;61064;51.654;5.476;2023-11-21T06:39:24;29.77;;;11.57;;
72920;SDS011;61064;51.654;5.476;2023-11-21T06:41:52;29.73;;;12.13;;
72920;SDS011;61064;51.654;5.476;2023-11-21T06:44:17;24.73;;;11.82;;
72920;SDS011;61064;51.654;5.476;2023-11-21T06:46:45;34.13;;;12.35;;
72920;SDS011;61064;51.654;5.476;2023-11-21T06:49:10;30.77;;;12.03;;
72920;SDS011;61064;51.654;5.476;2023-11-21T06:51:36;31.35;;;11.93;;
72920;SDS011;61064;51.654;5.476;2023-11-21T06:54:01;33.07;;;12.27;;
72920;SDS011;61064;51.654;5.476;2023-11-21T06:56:30;33.05;;;12.93;;
72920;SDS011;61064;51.654;5.476;2023-11-21T06:58:56;33.37;;;12.67;;
72920;SDS011;61064;51.654;5.476;2023-11-21T07:01:21;37.03;;;13.43;;
72920;SDS011;61064;51.654;5.476;2023-11-21T07:03:46;35.53;;;12.57;;
72920;SDS011;61064;51.654;5.476;2023-11-21T07:06:12;30.33;;;12.47;;
72920;SDS011;61064;51.654;5.476;2023-11-21T07:08:37;35.97;;;12.63;;
72920;SDS011;61064;51.654;5.476;2023-11-21T07:11:03;34.53;;;12.55;;
72920;SDS011;61064;51.654;5.476;2023-11-21T07:13:29;36.97;;;12.40;;
72920;SDS011;61064;51.654;5.476;2023-11-21T07:15:55;37.80;;;12.75;;
72920;SDS011;61064;51.654;5.476;2023-11-21T07:18:20;37.00;;;13.40;;
72920;SDS011;61064;51.654;5.476;2023-11-21T07:20:46;35.77;;;12.93;;
72920;SDS011;61064;51.654;5.476;2023-11-21T07:23:11;39.97;;;13.60;;
72920;SDS011;61064;51.654;5.476;2023-11-21T07:25:36;36.10;;;12.57;;
72920;SDS011;61064;51.654;5.476;2023-11-21T07:28:02;35.03;;;12.77;;
72920;SDS011;61064;51.654;5.476;2023-11-21T07:30:28;31.55;;;12.68;;
72920;SDS011;61064;51.654;5.476;2023-11-21T07:32:53;34.40;;;12.63;;
72920;SDS011;61064;51.654;5.476;2023-11-21T07:35:18;37.93;;;14.17;;
72920;SDS011;61064;51.654;5.476;2023-11-21T07:37:44;36.40;;;12.77;;
72920;SDS011;61064;51.654;5.476;2023-11-21T07:40:09;37.53;;;13.27;;
72920;SDS011;61064;51.654;5.476;2023-11-21T07:42:36;32.45;;;12.35;;
72920;SDS011;61064;51.654;5.476;2023-11-21T07:45:02;32.80;;;12.85;;
72920;SDS011;61064;51.654;5.476;2023-11-21T07:47:30;37.75;;;12.95;;
72920;SDS011;61064;51.654;5.476;2023-11-21T07:49:55;36.47;;;12.27;;
72920;SDS011;61064;51.654;5.476;2023-11-21T07:52:21;33.63;;;12.65;;
72920;SDS011;61064;51.654;5.476;2023-11-21T07:54:47;34.25;;;12.07;;
72920;SDS011;61064;51.654;5.476;2023-11-21T07:57:13;37.83;;;12.90;;
72920;SDS011;61064;51.654;5.476;2023-11-21T07:59:38;38.57;;;13.40;;
72920;SDS011;61064;51.654;5.476;2023-11-21T08:02:06;36.47;;;12.82;;
72920;SDS011;61064;51.654;5.476;2023-11-21T08:04:32;38.15;;;12.52;;
72920;SDS011;61064;51.654;5.476;2023-11-21T08:06:57;39.67;;;13.30;;
72920;SDS011;61064;51.654;5.476;2023-11-21T08:09:22;45.10;;;13.97;;
72920;SDS011;61064;51.654;5.476;2023-11-21T08:11:48;45.00;;;13.18;;
72920;SDS011;61064;51.654;5.476;2023-11-21T08:14:14;42.70;;;13.60;;
72920;SDS011;61064;51.654;5.476;2023-11-21T08:16:41;41.20;;;12.88;;
72920;SDS011;61064;51.654;5.476;2023-11-21T08:19:07;42.90;;;13.53;;
72920;SDS011;61064;51.654;5.476;2023-11-21T08:21:34;39.85;;;13.20;;
72920;SDS011;61064;51.654;5.476;2023-11-21T08:23:59;41.80;;;12.80;;
72920;SDS011;61064;51.654;5.476;2023-11-21T08:26:25;35.72;;;13.65;;
72920;SDS011;61064;51.654;5.476;2023-11-21T08:28:50;44.13;;;13.17;;
72920;SDS011;61064;51.654;5.476;2023-11-21T08:31:22;43.65;;;13.50;;
72920;SDS011;61064;51.654;5.476;2023-11-21T08:33:49;41.50;;;14.03;;
72920;SDS011;61064;51.654;5.476;2023-11-21T08:36:15;42.80;;;14.45;;
72920;SDS011;61064;51.654;5.476;2023-11-21T08:38:41;48.27;;;14.27;;
72920;SDS011;61064;51.654;5.476;2023-11-21T08:41:06;60.37;;;15.47;;
72920;SDS011;61064;51.654;5.476;2023-11-21T08:43:33;58.38;;;15.05;;
72920;SDS011;61064;51.654;5.476;2023-11-21T08:46:00;54.63;;;14.18;;
72920;SDS011;61064;51.654;5.476;2023-11-21T08:48:25;56.60;;;14.27;;
72920;SDS011;61064;51.654;5.476;2023-11-21T08:50:51;57.13;;;15.93;;
72920;SDS011;61064;51.654;5.476;2023-11-21T08:53:16;57.80;;;15.13;;
72920;SDS011;61064;51.654;5.476;2023-11-21T08:55:42;58.23;;;15.27;;
72920;SDS011;61064;51.654;5.476;2023-11-21T08:58:09;57.35;;;15.25;;
72920;SDS011;61064;51.654;5.476;2023-11-21T09:00:34;62.30;;;14.60;;
72920;SDS011;61064;51.654;5.476;2023-11-21T09:03:01;67.80;;;15.57;;
72920;SDS011;61064;51.654;5.476;2023-11-21T09:05:27;63.17;;;14.80;;
72920;SDS011;61064;51.654;5.476;2023-11-21T09:07:52;60.97;;;15.23;;
72920;SDS011;61064;51.654;5.476;2023-11-21T09:10:17;51.53;;;14.70;;
72920;SDS011;61064;51.654;5.476;2023-11-21T09:12:43;60.13;;;15.55;;
72920;SDS011;61064;51.654;5.476;2023-11-21T09:15:08;62.63;;;16.10;;
72920;SDS011;61064;51.654;5.476;2023-11-21T09:17:36;65.07;;;14.93;;
72920;SDS011;61064;51.654;5.476;2023-11-21T09:20:01;59.73;;;15.33;;
72920;SDS011;61064;51.654;5.476;2023-11-21T09:22:30;51.10;;;14.52;;
72920;SDS011;61064;51.654;5.476;2023-11-21T09:24:56;51.83;;;15.52;;
72920;SDS011;61064;51.654;5.476;2023-11-21T09:27:22;55.90;;;14.63;;
72920;SDS011;61064;51.654;5.476;2023-11-21T09:29:48;49.05;;;14.38;;
72920;SDS011;61064;51.654;5.476;2023-11-21T09:32:14;50.33;;;14.60;;
72920;SDS011;61064;51.654;5.476;2023-11-21T09:34:43;41.95;;;14.07;;
72920;SDS011;61064;51.654;5.476;2023-11-21T09:37:09;46.37;;;14.00;;
72920;SDS011;61064;51.654;5.476;2023-11-21T09:39:34;42.92;;;13.05;;
72920;SDS011;61064;51.654;5.476;2023-11-21T09:42:17;41.43;;;12.77;;
72920;SDS011;61064;51.654;5.476;2023-11-21T09:44:50;39.38;;;13.43;;
72920;SDS011;61064;51.654;5.476;2023-11-21T09:47:23;42.80;;;12.57;;
72920;SDS011;61064;51.654;5.476;2023-11-21T09:49:49;42.90;;;12.50;;
72920;SDS011;61064;51.654;5.476;2023-11-21T09:52:38;42.63;;;12.57;;
72920;SDS011;61064;51.654;5.476;2023-11-21T09:55:09;41.00;;;13.07;;
72920;SDS011;61064;51.654;5.476;2023-11-21T09:57:38;45.55;;;12.70;;
72920;SDS011;61064;51.654;5.476;2023-11-21T10:00:03;41.07;;;13.87;;
72920;SDS011;61064;51.654;5.476;2023-11-21T10:02:30;45.53;;;13.73;;
72920;SDS011;61064;51.654;5.476;2023-11-21T10:04:59;41.25;;;12.20;;
72920;SDS011;61064;51.654;5.476;2023-11-21T10:07:25;47.40;;;13.27;;
72920;SDS011;61064;51.654;5.476;2023-11-21T10:09:51;41.72;;;13.18;;
72920;SDS011;61064;51.654;5.476;2023-11-21T10:12:18;46.88;;;12.77;;
72920;SDS011;61064;51.654;5.476;2023-11-21T10:14:47;41.33;;;12.55;;
72920;SDS011;61064;51.654;5.476;2023-11-21T10:17:14;40.15;;;12.90;;
72920;SDS011;61064;51.654;5.476;2023-11-21T10:19:41;42.87;;;13.10;;
72920;SDS011;61064;51.654;5.476;2023-11-21T10:22:07;39.85;;;12.88;;
72920;SDS011;61064;51.654;5.476;2023-11-21T10:24:33;39.40;;;12.10;;
72920;SDS011;61064;51.654;5.476;2023-11-21T10:26:59;47.77;;;18.33;;
72920;SDS011;61064;51.654;5.476;2023-11-21T10:29:28;42.25;;;15.43;;
72920;SDS011;61064;51.654;5.476;2023-11-21T10:31:55;56.60;;;19.00;;
72920;SDS011;61064;51.654;5.476;2023-11-21T10:34:22;79.60;;;27.58;;
72920;SDS011;61064;51.654;5.476;2023-11-21T10:36:48;50.43;;;16.73;;
72920;SDS011;61064;51.654;5.476;2023-11-21T10:39:17;122.70;;;43.43;;
72920;SDS011;61064;51.654;5.476;2023-11-21T10:41:44;168.93;;;63.60;;
72920;SDS011;61064;51.654;5.476;2023-11-21T10:44:13;133.13;;;55.00;;
72920;SDS011;61064;51.654;5.476;2023-11-21T10:46:45;67.30;;;28.23;;
72920;SDS011;61064;51.654;5.476;2023-11-21T10:49:15;41.10;;;15.50;;
72920;SDS011;61064;51.654;5.476;2023-11-21T10:51:43;33.47;;;12.75;;
72920;SDS011;61064;51.654;5.476;2023-11-21T10:54:09;34.40;;;12.80;;
72920;SDS011;61064;51.654;5.476;2023-11-21T10:56:34;35.03;;;13.03;;
72920;SDS011;61064;51.654;5.476;2023-11-21T10:59:05;30.02;;;9.70;;
72920;SDS011;61064;51.654;5.476;2023-11-21T11:01:36;29.15;;;10.52;;
72920;SDS011;61064;51.654;5.476;2023-11-21T11:04:03;26.73;;;10.00;;
72920;SDS011;61064;51.654;5.476;2023-11-21T11:06:31;27.38;;;10.52;;
72920;SDS011;61064;51.654;5.476;2023-11-21T11:08:58;27.30;;;10.98;;
72920;SDS011;61064;51.654;5.476;2023-11-21T11:11:25;33.00;;;10.63;;
72920;SDS011;61064;51.654;5.476;2023-11-21T11:13:50;28.00;;;9.70;;
72920;SDS011;61064;51.654;5.476;2023-11-21T11:16:18;25.73;;;10.50;;
72920;SDS011;61064;51.654;5.476;2023-11-21T11:18:45;26.02;;;9.65;;
72920;SDS011;61064;51.654;5.476;2023-11-21T11:21:31;24.85;;;10.43;;
72920;SDS011;61064;51.654;5.476;2023-11-21T11:27:01;27.60;;;10.43;;
72920;SDS011;61064;51.654;5.476;2023-11-21T11:29:43;25.27;;;9.80;;
72920;SDS011;61064;51.654;5.476;2023-11-21T11:35:52;24.83;;;10.02;;
72920;SDS011;61064;51.654;5.476;2023-11-21T11:38:32;21.05;;;8.23;;
72920;SDS011;61064;51.654;5.476;2023-11-21T11:41:01;21.25;;;8.63;;
72920;SDS011;61064;51.654;5.476;2023-11-21T11:43:29;18.00;;;7.17;;
72920;SDS011;61064;51.654;5.476;2023-11-21T11:45:56;20.52;;;8.55;;
72920;SDS011;61064;51.654;5.476;2023-11-21T11:48:23;19.80;;;8.13;;
72920;SDS011;61064;51.654;5.476;2023-11-21T11:51:03;19.38;;;7.55;;
72920;SDS011;61064;51.654;5.476;2023-11-21T11:53:50;15.73;;;6.38;;
72920;SDS011;61064;51.654;5.476;2023-11-21T11:56:30;16.27;;;6.70;;
72920;SDS011;61064;51.654;5.476;2023-11-21T11:59:01;19.13;;;6.72;;
72920;SDS011;61064;51.654;5.476;2023-11-21T12:01:28;18.20;;;7.05;;
72920;SDS011;61064;51.654;5.476;2023-11-21T12:06:51;20.00;;;7.55;;
72920;SDS011;61064;51.654;5.476;2023-11-21T12:09:19;20.00;;;7.90;;
72920;SDS011;61064;51.654;5.476;2023-11-21T12:11:52;20.77;;;8.27;;
72920;SDS011;61064;51.654;5.476;2023-11-21T12:14:22;21.25;;;8.40;;
72920;SDS011;61064;51.654;5.476;2023-11-21T12:16:48;23.27;;;8.77;;
72920;SDS011;61064;51.654;5.476;2023-11-21T12:19:17;24.15;;;9.20;;
72920;SDS011;61064;51.654;5.476;2023-11-21T12:21:46;28.93;;;11.23;;
72920;SDS011;61064;51.654;5.476;2023-11-21T12:24:14;24.17;;;9.98;;
72920;SDS011;61064;51.654;5.476;2023-11-21T12:26:44;26.27;;;10.85;;
72920;SDS011;61064;51.654;5.476;2023-11-21T12:29:12;26.15;;;10.00;;
72920;SDS011;61064;51.654;5.476;2023-11-21T12:31:41;24.15;;;9.00;;
72920;SDS011;61064;51.654;5.476;2023-11-21T12:34:06;25.53;;;9.77;;
72920;SDS011;61064;51.654;5.476;2023-11-21T12:36:34;45.10;;;18.65;;
72920;SDS011;61064;51.654;5.476;2023-11-21T12:38:59;54.78;;;30.25;;
72920;SDS011;61064;51.654;5.476;2023-11-21T12:41:27;35.30;;;13.53;;
72920;SDS011;61064;51.654;5.476;2023-11-21T12:43:53;28.15;;;12.07;;
72920;SDS011;61064;51.654;5.476;2023-11-21T12:46:20;107.00;;;43.87;;
72920;SDS011;61064;51.654;5.476;2023-11-21T12:48:46;68.47;;;28.80;;
72920;SDS011;61064;51.654;5.476;2023-11-21T12:51:12;39.73;;;15.93;;
72920;SDS011;61064;51.654;5.476;2023-11-21T12:53:41;30.50;;;12.07;;
72920;SDS011;61064;51.654;5.476;2023-11-21T12:56:11;33.50;;;12.98;;
72920;SDS011;61064;51.654;5.476;2023-11-21T12:58:38;33.00;;;13.77;;
72920;SDS011;61064;51.654;5.476;2023-11-21T13:01:05;31.57;;;12.13;;
72920;SDS011;61064;51.654;5.476;2023-11-21T13:03:37;31.75;;;12.40;;
72920;SDS011;61064;51.654;5.476;2023-11-21T13:06:04;31.83;;;11.85;;
72920;SDS011;61064;51.654;5.476;2023-11-21T13:08:32;35.45;;;12.27;;
72920;SDS011;61064;51.654;5.476;2023-11-21T13:10:58;31.73;;;11.63;;
72920;SDS011;61064;51.654;5.476;2023-11-21T13:13:24;27.50;;;10.88;;
72920;SDS011;61064;51.654;5.476;2023-11-21T13:15:56;27.98;;;10.52;;
72920;SDS011;61064;51.654;5.476;2023-11-21T13:18:25;29.77;;;10.35;;
72920;SDS011;61064;51.654;5.476;2023-11-21T13:20:52;25.48;;;9.60;;
72920;SDS011;61064;51.654;5.476;2023-11-21T13:23:23;23.93;;;9.23;;
72920;SDS011;61064;51.654;5.476;2023-11-21T13:25:49;21.65;;;9.30;;
72920;SDS011;61064;51.654;5.476;2023-11-21T13:28:15;22.77;;;9.05;;
72920;SDS011;61064;51.654;5.476;2023-11-21T13:30:43;23.45;;;8.57;;
72920;SDS011;61064;51.654;5.476;2023-11-21T13:33:11;20.95;;;8.35;;
72920;SDS011;61064;51.654;5.476;2023-11-21T13:35:42;23.70;;;8.47;;
72920;SDS011;61064;51.654;5.476;2023-11-21T13:38:13;20.67;;;8.50;;
72920;SDS011;61064;51.654;5.476;2023-11-21T13:40:48;20.45;;;7.25;;
72920;SDS011;61064;51.654;5.476;2023-11-21T13:43:19;18.48;;;7.15;;
72920;SDS011;61064;51.654;5.476;2023-11-21T13:45:48;17.88;;;6.65;;
72920;SDS011;61064;51.654;5.476;2023-11-21T13:48:26;16.60;;;6.43;;
72920;SDS011;61064;51.654;5.476;2023-11-21T13:51:02;18.73;;;6.07;;
72920;SDS011;61064;51.654;5.476;2023-11-21T13:53:35;17.60;;;6.20;;
72920;SDS011;61064;51.654;5.476;2023-11-21T13:56:02;16.48;;;5.85;;
72920;SDS011;61064;51.654;5.476;2023-11-21T13:58:28;15.33;;;5.70;;
72920;SDS011;61064;51.654;5.476;2023-11-21T14:01:10;17.03;;;6.03;;
72920;SDS011;61064;51.654;5.476;2023-11-21T14:03:55;14.95;;;5.35;;
72920;SDS011;61064;51.654;5.476;2023-11-21T14:06:38;14.85;;;5.53;;
72920;SDS011;61064;51.654;5.476;2023-11-21T14:09:23;15.65;;;5.30;;
72920;SDS011;61064;51.654;5.476;2023-11-21T14:11:57;14.52;;;5.40;;
72920;SDS011;61064;51.654;5.476;2023-11-21T14:14:25;13.57;;;5.60;;
72920;SDS011;61064;51.654;5.476;2023-11-21T14:16:52;12.07;;;5.07;;
72920;SDS011;61064;51.654;5.476;2023-11-21T14:19:18;13.25;;;5.25;;
72920;SDS011;61064;51.654;5.476;2023-11-21T14:21:44;17.53;;;5.70;;
72920;SDS011;61064;51.654;5.476;2023-11-21T14:24:10;61.47;;;21.50;;
72920;SDS011;61064;51.654;5.476;2023-11-21T14:26:40;104.07;;;30.27;;
72920;SDS011;61064;51.654;5.476;2023-11-21T14:29:07;36.27;;;15.73;;
72920;SDS011;61064;51.654;5.476;2023-11-21T14:31:39;41.30;;;19.42;;
72920;SDS011;61064;51.654;5.476;2023-11-21T14:34:04;31.37;;;15.07;;